Time;durP1;ratioP1;P1;durP2;ratioP2;P2;SDS_P1;SDS_P2;PMS_P1;PMS_P2;Temp;Humidity;BMP_temperature;BMP_pressure;BME280_temperature;BME280_humidity;BME280_pressure;Samples;Min_cycle;Max_cycle;Signal;HPM_P1;HPM_P2
2022/07/13 00:01:21;;;;;;;3.50;3.20;;;19.60;99.90;;;;;;4960299;28;20051;-90
2022/07/13 00:03:47;;;;;;;3.30;3.00;;;19.60;99.90;;;;;;4955158;28;20058;-90
2022/07/13 00:06:16;;;;;;;8.23;3.55;;;19.60;99.90;;;;;;4948083;28;20447;-93
2022/07/13 00:08:41;;;;;;;4.13;3.20;;;19.60;99.90;;;;;;4947532;28;20051;-91
2022/07/13 00:11:07;;;;;;;3.80;3.50;;;19.60;99.90;;;;;;4949878;28;20042;-91
2022/07/13 00:13:32;;;;;;;4.20;3.80;;;19.60;99.90;;;;;;4964787;28;20038;-91
2022/07/13 00:15:58;;;;;;;4.60;3.40;;;19.60;99.90;;;;;;4946710;28;20042;-90
2022/07/13 00:18:24;;;;;;;3.90;3.30;;;19.50;99.90;;;;;;4946886;28;20046;-90
2022/07/13 00:20:50;;;;;;;4.10;3.13;;;19.50;99.90;;;;;;4950009;28;20499;-91
2022/07/13 00:23:16;;;;;;;4.65;3.70;;;19.50;99.90;;;;;;4957161;28;20088;-90
2022/07/13 00:25:42;;;;;;;3.78;3.20;;;19.50;99.90;;;;;;4948668;28;20031;-90
2022/07/13 00:28:08;;;;;;;3.85;3.25;;;19.40;99.90;;;;;;4944877;28;20500;-92
2022/07/13 00:30:33;;;;;;;3.88;3.47;;;19.40;99.90;;;;;;4944847;28;20050;-91
2022/07/13 00:33:03;;;;;;;5.13;3.95;;;19.50;99.90;;;;;;4948099;28;20059;-91
2022/07/13 00:35:29;;;;;;;4.30;3.90;;;19.50;99.90;;;;;;4941775;28;20514;-91
2022/07/13 00:37:55;;;;;;;4.25;3.85;;;19.40;99.90;;;;;;4945395;28;20035;-91
2022/07/13 00:40:21;;;;;;;3.97;3.67;;;19.40;99.90;;;;;;4947716;28;20563;-91
2022/07/13 00:42:47;;;;;;;4.43;3.72;;;19.40;99.90;;;;;;4947894;28;20069;-91
2022/07/13 00:45:12;;;;;;;5.68;3.83;;;19.40;99.90;;;;;;4964890;28;20038;-92
2022/07/13 00:47:38;;;;;;;5.55;3.53;;;19.40;99.90;;;;;;4938686;28;20118;-93
2022/07/13 00:50:06;;;;;;;4.45;3.70;;;19.40;99.90;;;;;;4959198;28;20050;-93
2022/07/13 00:52:34;;;;;;;3.60;3.30;;;19.40;99.90;;;;;;4962973;28;20039;-92
2022/07/13 00:55:03;;;;;;;4.85;3.72;;;19.40;99.90;;;;;;4949326;28;20313;-91
2022/07/13 00:57:33;;;;;;;7.03;3.78;;;19.40;99.90;;;;;;4962898;28;20105;-91
2022/07/13 01:00:00;;;;;;;4.53;4.00;;;19.50;99.90;;;;;;4945647;28;20100;-91
2022/07/13 01:02:26;;;;;;;4.30;3.90;;;19.40;99.90;;;;;;4947855;28;20626;-91
2022/07/13 01:04:51;;;;;;;5.10;4.45;;;19.40;99.90;;;;;;4959717;28;20051;-92
2022/07/13 01:07:18;;;;;;;5.05;4.53;;;19.40;99.90;;;;;;4948979;28;20039;-92
2022/07/13 01:09:43;;;;;;;4.93;4.43;;;19.50;99.90;;;;;;4956973;28;20117;-92
2022/07/13 01:12:09;;;;;;;8.38;5.13;;;19.50;99.90;;;;;;4944000;28;20050;-92
2022/07/13 01:14:36;;;;;;;6.47;4.70;;;19.50;99.90;;;;;;4932945;28;20031;-91
2022/07/13 01:17:02;;;;;;;5.32;4.80;;;19.50;99.90;;;;;;4949375;28;20050;-91
2022/07/13 01:19:28;;;;;;;5.30;4.78;;;19.50;99.90;;;;;;4945402;28;20038;-91
2022/07/13 01:22:00;;;;;;;6.68;5.30;;;19.50;99.90;;;;;;4948847;28;20034;-91
2022/07/13 01:24:29;;;;;;;6.03;4.95;;;19.50;98.40;;;;;;4949409;28;20481;-91
2022/07/13 01:26:55;;;;;;;6.13;5.38;;;19.50;99.90;;;;;;4962175;28;20039;-91
2022/07/13 01:29:21;;;;;;;6.25;5.65;;;19.50;99.90;;;;;;4947105;28;20126;-93
2022/07/13 01:31:47;;;;;;;6.38;5.65;;;19.60;99.90;;;;;;4942360;28;20182;-91
2022/07/13 01:34:13;;;;;;;7.38;5.68;;;19.50;99.90;;;;;;4945857;28;20047;-92
2022/07/13 01:36:41;;;;;;;6.28;5.47;;;19.60;97.60;;;;;;4946337;28;20043;-91
2022/07/13 01:39:07;;;;;;;7.22;6.00;;;19.60;68.50;;;;;;4947712;28;20038;-92
2022/07/13 01:41:33;;;;;;;6.80;6.00;;;19.60;88.50;;;;;;4947628;28;20031;-92
2022/07/13 01:43:59;;;;;;;9.07;6.10;;;19.60;26.20;;;;;;4946738;28;20034;-92
2022/07/13 01:46:26;;;;;;;7.43;5.57;;;19.60;24.80;;;;;;4946003;28;20402;-92
2022/07/13 01:48:54;;;;;;;6.85;6.18;;;19.60;6.60;;;;;;4937899;28;20407;-91
2022/07/13 01:51:19;;;;;;;6.75;5.78;;;19.60;28.90;;;;;;4944512;28;20055;-91
2022/07/13 01:53:46;;;;;;;6.50;5.90;;;19.60;20.00;;;;;;4947188;28;20058;-91
2022/07/13 01:56:14;;;;;;;7.28;6.53;;;19.70;22.90;;;;;;4944760;28;20043;-93
2022/07/13 01:58:40;;;;;;;7.90;7.00;;;19.60;1.00;;;;;;4945393;28;20478;-92
2022/07/13 02:01:06;;;;;;;8.43;7.63;;;19.70;1.00;;;;;;4945606;28;20157;-92
2022/07/13 02:03:34;;;;;;;8.05;7.25;;;19.70;1.00;;;;;;4946460;28;20050;-91
2022/07/13 02:06:00;;;;;;;8.00;6.72;;;19.70;1.00;;;;;;4962530;28;20137;-93
2022/07/13 02:08:26;;;;;;;9.93;6.85;;;19.80;1.00;;;;;;4940118;28;20162;-92
2022/07/13 02:10:52;;;;;;;8.45;7.07;;;19.80;1.00;;;;;;4947197;28;20529;-92
2022/07/13 02:13:19;;;;;;;8.02;7.22;;;19.80;1.00;;;;;;4978046;28;20272;-91
2022/07/13 02:15:45;;;;;;;7.90;7.20;;;19.80;1.00;;;;;;4945546;28;20054;-92
2022/07/13 02:18:11;;;;;;;9.75;7.20;;;19.80;1.00;;;;;;4947958;28;20043;-92
2022/07/13 02:20:40;;;;;;;10.45;6.75;;;19.80;1.00;;;;;;4948475;28;20154;-92
2022/07/13 02:23:06;;;;;;;7.78;7.03;;;19.80;1.00;;;;;;4945109;28;20047;-93
2022/07/13 02:25:37;;;;;;;9.00;6.60;;;19.70;1.00;;;;;;4945995;29;20047;-91
2022/07/13 02:28:08;;;;;;;8.35;7.30;;;19.80;1.00;;;;;;4978146;28;20038;-90
2022/07/13 02:30:34;;;;;;;9.43;6.40;;;19.80;99.90;;;;;;4957869;28;20097;-92
2022/07/13 02:33:00;;;;;;;7.40;6.70;;;19.80;99.90;;;;;;4947327;28;20122;-93
2022/07/13 02:35:26;;;;;;;6.82;6.20;;;19.80;1.00;;;;;;4947316;28;20065;-90
2022/07/13 02:37:52;;;;;;;7.35;6.50;;;19.80;99.90;;;;;;4945753;28;20043;-91
2022/07/13 02:40:18;;;;;;;7.80;6.63;;;19.80;99.90;;;;;;4947890;28;20035;-92
2022/07/13 02:42:44;;;;;;;7.35;6.65;;;19.80;99.90;;;;;;4946500;28;20049;-92
2022/07/13 02:45:10;;;;;;;8.27;6.70;;;19.90;99.90;;;;;;4946529;28;20042;-92
2022/07/13 02:47:36;;;;;;;9.60;7.15;;;19.90;99.90;;;;;;4944564;28;20047;-92
2022/07/13 02:50:03;;;;;;;9.65;6.60;;;19.90;99.90;;;;;;4946853;28;20043;-93
2022/07/13 02:52:29;;;;;;;8.10;6.70;;;19.80;99.90;;;;;;4943958;28;20047;-92
2022/07/13 02:54:54;;;;;;;8.93;7.18;;;19.80;99.90;;;;;;4962928;28;20525;-92
2022/07/13 02:57:20;;;;;;;7.75;7.05;;;19.80;99.90;;;;;;4947084;28;20136;-94
2022/07/13 02:59:46;;;;;;;7.13;6.43;;;19.80;99.90;;;;;;4943575;28;20046;-92
2022/07/13 03:02:11;;;;;;;7.90;7.20;;;19.80;99.90;;;;;;4947039;28;20130;-91
2022/07/13 03:04:40;;;;;;;7.63;6.88;;;19.80;99.90;;;;;;4959432;28;20125;-91
2022/07/13 03:07:06;;;;;;;8.23;7.35;;;19.80;99.90;;;;;;4958597;28;20102;-91
2022/07/13 03:09:33;;;;;;;7.53;6.75;;;19.80;99.90;;;;;;4946268;28;20201;-93
2022/07/13 03:11:59;;;;;;;8.45;7.47;;;19.80;99.90;;;;;;4944301;28;20034;-92
2022/07/13 03:14:25;;;;;;;8.32;7.07;;;19.80;99.90;;;;;;4943862;28;20502;-91
2022/07/13 03:16:51;;;;;;;7.90;6.75;;;19.80;99.90;;;;;;4944499;28;20349;-92
2022/07/13 03:19:17;;;;;;;8.13;7.32;;;19.90;99.90;;;;;;4934749;28;20043;-91
2022/07/13 03:21:42;;;;;;;8.32;7.10;;;19.80;99.90;;;;;;4945326;28;20062;-91
2022/07/13 03:24:08;;;;;;;7.68;6.53;;;19.80;99.90;;;;;;4951327;28;20038;-91
2022/07/13 03:26:34;;;;;;;8.98;6.72;;;19.80;99.90;;;;;;4943665;28;20091;-91
2022/07/13 03:29:00;;;;;;;7.50;6.60;;;19.80;99.90;;;;;;4947226;28;20050;-92
2022/07/13 03:31:26;;;;;;;7.32;6.53;;;19.80;99.90;;;;;;4944155;28;20058;-93
2022/07/13 03:33:53;;;;;;;7.93;6.60;;;19.80;99.90;;;;;;4948421;28;20043;-91
2022/07/13 03:36:19;;;;;;;7.13;6.43;;;19.70;99.90;;;;;;4945482;28;20042;-91
2022/07/13 03:38:47;;;;;;;7.43;6.20;;;19.70;99.90;;;;;;4938727;28;20043;-91
2022/07/13 03:41:13;;;;;;;7.25;6.07;;;19.70;99.90;;;;;;4965597;28;20090;-92
2022/07/13 03:43:39;;;;;;;7.47;6.25;;;19.70;99.90;;;;;;4942804;28;20118;-92
2022/07/13 03:46:07;;;;;;;6.70;6.10;;;19.70;99.90;;;;;;4944755;28;20046;-93
2022/07/13 03:48:32;;;;;;;7.72;6.25;;;19.70;99.90;;;;;;4945610;28;20043;-92
2022/07/13 03:50:58;;;;;;;6.85;6.10;;;19.80;99.90;;;;;;4945623;28;20054;-92
2022/07/13 03:53:24;;;;;;;8.07;6.32;;;19.70;99.90;;;;;;4935515;28;20590;-92
2022/07/13 03:55:49;;;;;;;6.28;5.68;;;19.70;99.90;;;;;;4946515;28;20038;-91
2022/07/13 03:58:18;;;;;;;7.55;6.20;;;19.80;99.90;;;;;;4936806;28;20062;-92
2022/07/13 04:00:44;;;;;;;6.95;5.63;;;19.70;99.90;;;;;;4974026;28;20569;-92
2022/07/13 04:03:09;;;;;;;6.82;6.13;;;19.70;99.90;;;;;;4945634;28;20090;-93
2022/07/13 04:05:35;;;;;;;6.90;5.93;;;19.80;99.90;;;;;;4938940;28;20050;-92
2022/07/13 04:08:01;;;;;;;6.60;5.88;;;19.80;99.90;;;;;;4935657;28;20058;-92
2022/07/13 04:10:26;;;;;;;8.15;5.97;;;19.80;99.90;;;;;;4942725;28;20039;-92
2022/07/13 04:12:52;;;;;;;7.57;6.15;;;19.80;99.90;;;;;;4960926;28;20047;-92
2022/07/13 04:15:18;;;;;;;6.40;5.80;;;19.80;99.90;;;;;;4944901;28;20043;-92
2022/07/13 04:17:44;;;;;;;7.50;5.75;;;19.80;99.90;;;;;;4944361;28;20514;-93
2022/07/13 04:20:11;;;;;;;6.75;6.03;;;19.80;99.90;;;;;;4943242;28;20047;-91
2022/07/13 04:22:37;;;;;;;8.38;6.50;;;19.80;99.90;;;;;;4945167;28;20046;-91
2022/07/13 04:25:04;;;;;;;7.47;6.07;;;19.80;99.90;;;;;;4943982;28;20035;-91
2022/07/13 04:27:37;;;;;;;6.63;6.03;;;19.80;99.90;;;;;;4944164;28;20241;-93
2022/07/13 04:30:03;;;;;;;6.65;6.05;;;19.90;99.90;;;;;;4954802;28;20150;-92
2022/07/13 04:32:29;;;;;;;6.78;5.78;;;19.90;99.90;;;;;;4944577;28;20054;-92
2022/07/13 04:34:55;;;;;;;7.68;6.43;;;19.90;99.90;;;;;;4943336;28;20035;-92
2022/07/13 04:37:21;;;;;;;6.45;5.85;;;19.90;99.90;;;;;;4947372;28;20432;-92
2022/07/13 04:39:47;;;;;;;7.35;6.20;;;20.00;99.90;;;;;;4949769;28;20179;-92
2022/07/13 04:42:12;;;;;;;6.18;5.57;;;20.00;99.90;;;;;;4949524;28;20547;-92
2022/07/13 04:44:38;;;;;;;7.97;5.97;;;20.00;99.90;;;;;;4947580;28;20034;-93
2022/07/13 04:47:03;;;;;;;7.13;6.38;;;20.10;99.90;;;;;;4946293;28;20458;-91
2022/07/13 04:49:29;;;;;;;7.63;5.75;;;20.10;99.90;;;;;;4950170;28;20047;-92
2022/07/13 04:51:55;;;;;;;6.85;5.63;;;20.10;99.90;;;;;;4947500;28;20086;-93
2022/07/13 04:54:21;;;;;;;8.15;5.90;;;20.20;99.90;;;;;;4948861;28;20467;-91
2022/07/13 04:56:49;;;;;;;6.20;5.60;;;20.20;99.90;;;;;;4944818;28;20133;-92
2022/07/13 04:59:15;;;;;;;7.15;6.32;;;20.20;99.90;;;;;;4948283;28;20468;-91
2022/07/13 05:01:42;;;;;;;7.85;5.70;;;20.30;99.90;;;;;;4948695;28;20078;-92
2022/07/13 05:04:08;;;;;;;7.50;6.10;;;20.30;99.90;;;;;;4942209;28;20575;-91
2022/07/13 05:06:34;;;;;;;7.85;6.00;;;20.30;99.90;;;;;;4947211;28;20039;-92
2022/07/13 05:09:00;;;;;;;6.82;6.20;;;20.40;99.90;;;;;;4957956;28;20470;-91
2022/07/13 05:11:26;;;;;;;7.07;6.38;;;20.30;99.90;;;;;;4948220;28;20039;-91
2022/07/13 05:13:53;;;;;;;6.40;5.80;;;20.40;99.90;;;;;;4947455;28;20105;-92
2022/07/13 05:16:18;;;;;;;8.20;6.10;;;20.40;99.90;;;;;;4947206;28;20126;-92
2022/07/13 05:18:45;;;;;;;6.18;5.47;;;20.30;99.90;;;;;;4962071;28;20130;-92
2022/07/13 05:21:14;;;;;;;6.05;5.45;;;20.30;99.90;;;;;;4937572;28;20602;-93
2022/07/13 05:23:40;;;;;;;8.50;5.50;;;20.30;99.90;;;;;;4948549;28;20129;-93
2022/07/13 05:26:06;;;;;;;6.95;5.63;;;20.40;99.90;;;;;;4947902;28;20177;-93
2022/07/13 05:28:32;;;;;;;6.60;6.00;;;20.30;99.90;;;;;;4946869;28;20129;-92
2022/07/13 05:30:58;;;;;;;7.70;6.05;;;20.40;99.90;;;;;;4941507;28;20054;-92
2022/07/13 05:33:25;;;;;;;7.38;5.63;;;20.40;99.90;;;;;;4948611;28;20122;-93
2022/07/13 05:35:50;;;;;;;6.90;6.20;;;20.50;99.90;;;;;;4938886;29;20043;-91
2022/07/13 05:38:16;;;;;;;7.03;6.10;;;20.50;99.90;;;;;;4944225;28;20042;-92
2022/07/13 05:40:42;;;;;;;6.32;5.38;;;20.50;99.90;;;;;;4947142;28;20553;-91
2022/07/13 05:43:08;;;;;;;6.07;5.28;;;20.50;99.90;;;;;;4944789;28;20125;-92
2022/07/13 05:45:34;;;;;;;6.47;5.88;;;20.50;99.90;;;;;;4945256;28;20490;-91
2022/07/13 05:48:02;;;;;;;7.20;6.00;;;20.60;99.90;;;;;;4947865;28;20636;-92
2022/07/13 05:50:27;;;;;;;6.65;5.85;;;20.70;99.90;;;;;;4941010;28;20047;-92
2022/07/13 05:52:56;;;;;;;6.68;6.07;;;20.70;99.90;;;;;;4952795;28;20108;-91
2022/07/13 05:55:22;;;;;;;7.13;6.43;;;20.80;99.90;;;;;;4942533;28;20062;-92
2022/07/13 05:57:48;;;;;;;7.65;6.50;;;20.80;99.90;;;;;;4947218;28;20053;-91
2022/07/13 06:00:14;;;;;;;7.10;6.40;;;20.90;99.90;;;;;;4962084;28;20034;-92
2022/07/13 06:02:43;;;;;;;6.80;5.78;;;20.90;99.90;;;;;;4953762;28;20050;-91
2022/07/13 06:05:11;;;;;;;7.43;6.25;;;21.00;99.90;;;;;;4943307;28;20047;-91
2022/07/13 06:07:37;;;;;;;7.53;6.10;;;21.00;99.90;;;;;;4946023;28;20412;-92
2022/07/13 06:10:04;;;;;;;9.50;6.45;;;21.10;99.90;;;;;;4946053;29;20055;-91
2022/07/13 06:12:30;;;;;;;7.72;6.05;;;21.20;99.90;;;;;;4946215;28;20110;-92
2022/07/13 06:14:56;;;;;;;7.35;6.50;;;21.20;99.90;;;;;;4941675;28;20066;-92
2022/07/13 06:17:21;;;;;;;10.40;6.70;;;21.30;99.90;;;;;;4947947;28;20313;-92
2022/07/13 06:19:48;;;;;;;7.82;7.13;;;21.50;99.90;;;;;;4945790;28;20502;-92
2022/07/13 06:22:13;;;;;;;9.18;6.95;;;21.50;99.90;;;;;;4942679;28;20062;-91
2022/07/13 06:24:41;;;;;;;8.57;6.40;;;21.60;99.90;;;;;;4946988;28;20042;-92
2022/07/13 06:27:07;;;;;;;8.52;6.68;;;21.70;99.90;;;;;;4944396;28;20062;-91
2022/07/13 06:29:33;;;;;;;7.40;6.63;;;21.80;99.90;;;;;;4968577;28;20068;-91
2022/07/13 06:31:59;;;;;;;7.25;6.55;;;21.80;99.90;;;;;;4944389;28;20074;-92
2022/07/13 06:34:25;;;;;;;9.43;7.20;;;21.90;99.90;;;;;;4961344;28;20078;-92
2022/07/13 06:36:51;;;;;;;8.02;6.80;;;22.10;99.90;;;;;;4947621;28;20129;-91
2022/07/13 06:39:20;;;;;;;8.40;6.43;;;22.10;99.90;;;;;;4962713;28;20046;-91
2022/07/13 06:41:46;;;;;;;8.07;7.28;;;22.20;99.90;;;;;;4945621;28;20114;-91
2022/07/13 06:44:12;;;;;;;8.55;6.57;;;22.20;99.90;;;;;;4946468;28;20538;-92
2022/07/13 06:46:38;;;;;;;8.57;7.68;;;22.30;99.90;;;;;;4944348;28;20062;-92
2022/07/13 06:49:04;;;;;;;7.95;7.05;;;22.30;99.90;;;;;;4958250;28;20479;-91
2022/07/13 06:51:30;;;;;;;8.85;7.95;;;22.40;99.90;;;;;;4944915;28;20047;-92
2022/07/13 06:53:55;;;;;;;13.85;8.90;;;22.60;99.90;;;;;;4936123;28;20069;-91
2022/07/13 06:56:28;;;;;;;12.00;7.95;;;22.50;99.90;;;;;;4961755;28;20046;-91
2022/07/13 06:58:54;;;;;;;9.52;8.55;;;22.60;99.90;;;;;;4939935;28;20097;-91
2022/07/13 07:01:20;;;;;;;9.68;8.68;;;22.70;99.90;;;;;;4960260;28;20418;-93
2022/07/13 07:03:46;;;;;;;13.77;9.60;;;22.70;99.90;;;;;;4944068;28;20062;-92
2022/07/13 07:06:12;;;;;;;9.90;8.85;;;22.70;99.90;;;;;;4946042;28;20125;-92
2022/07/13 07:08:38;;;;;;;11.48;10.25;;;22.70;99.90;;;;;;4940138;29;20217;-91
2022/07/13 07:11:03;;;;;;;11.63;9.30;;;22.80;99.90;;;;;;4961058;28;20125;-92
2022/07/13 07:13:29;;;;;;;14.30;9.68;;;22.90;99.90;;;;;;4960225;28;20326;-91
2022/07/13 07:15:55;;;;;;;12.95;10.30;;;22.80;99.90;;;;;;4953405;28;20035;-93
2022/07/13 07:18:21;;;;;;;11.25;9.60;;;22.90;99.90;;;;;;4931846;28;20039;-91
2022/07/13 07:20:51;;;;;;;14.43;9.27;;;22.80;99.90;;;;;;4945937;28;20062;-91
2022/07/13 07:23:17;;;;;;;12.65;9.65;;;23.10;99.90;;;;;;4935681;29;20053;-91
2022/07/13 07:25:43;;;;;;;10.93;9.10;;;23.20;99.90;;;;;;4937002;28;20692;-90
2022/07/13 07:28:09;;;;;;;11.00;9.45;;;23.00;99.90;;;;;;4960638;28;20568;-92
2022/07/13 07:30:36;;;;;;;15.27;9.82;;;22.80;99.90;;;;;;4936131;28;20051;-91
2022/07/13 07:33:02;;;;;;;11.27;9.57;;;22.80;99.90;;;;;;4945507;28;20335;-91
2022/07/13 07:35:28;;;;;;;12.25;9.52;;;23.10;99.90;;;;;;4940205;28;20047;-91
2022/07/13 07:37:54;;;;;;;13.27;9.57;;;23.10;99.90;;;;;;4945282;28;20054;-92
2022/07/13 07:40:20;;;;;;;14.23;10.07;;;23.10;99.90;;;;;;4944763;28;20105;-92
2022/07/13 07:42:48;;;;;;;12.65;9.57;;;23.20;99.90;;;;;;4944109;28;20034;-91
2022/07/13 07:45:14;;;;;;;11.60;9.63;;;23.40;99.90;;;;;;4928555;28;20514;-90
2022/07/13 07:47:43;;;;;;;14.63;9.90;;;23.30;99.90;;;;;;4969256;28;20066;-90
2022/07/13 07:50:09;;;;;;;11.15;9.60;;;23.40;99.90;;;;;;4942657;28;20148;-93
2022/07/13 07:52:35;;;;;;;10.60;9.50;;;23.50;99.90;;;;;;4960302;28;20075;-92
2022/07/13 07:55:00;;;;;;;11.65;10.18;;;23.40;99.90;;;;;;4946230;28;20043;-91
2022/07/13 07:57:28;;;;;;;17.17;10.48;;;23.40;99.90;;;;;;4944617;28;20039;-92
2022/07/13 07:59:57;;;;;;;12.05;10.00;;;23.60;99.90;;;;;;4938194;28;20043;-91
2022/07/13 08:02:23;;;;;;;14.18;10.38;;;23.50;99.90;;;;;;4952456;28;20063;-93
2022/07/13 08:04:49;;;;;;;13.35;10.00;;;23.70;99.90;;;;;;4944048;28;20133;-93
2022/07/13 08:07:14;;;;;;;11.60;9.60;;;23.90;99.90;;;;;;4937863;28;20042;-91
2022/07/13 08:09:40;;;;;;;11.20;10.00;;;23.90;99.90;;;;;;4944941;28;20039;-92
2022/07/13 08:12:06;;;;;;;11.38;9.68;;;24.00;99.90;;;;;;4943970;28;20051;-92
2022/07/13 08:14:31;;;;;;;11.13;9.00;;;24.20;99.90;;;;;;4945753;28;20039;-92
2022/07/13 08:16:58;;;;;;;11.48;9.35;;;24.10;99.90;;;;;;4948315;28;20186;-91
2022/07/13 08:19:24;;;;;;;11.25;8.30;;;24.00;99.90;;;;;;4946195;28;20054;-91
2022/07/13 08:21:50;;;;;;;9.95;8.00;;;24.10;99.90;;;;;;4963681;28;20038;-91
2022/07/13 08:24:16;;;;;;;10.55;7.97;;;24.30;99.90;;;;;;4935648;28;20043;-93
2022/07/13 08:26:42;;;;;;;10.05;7.32;;;24.40;99.90;;;;;;4949331;28;20132;-89
2022/07/13 08:29:08;;;;;;;11.40;6.90;;;24.60;72.30;;;;;;4948080;28;20535;-90
2022/07/13 08:31:34;;;;;;;10.18;7.30;;;24.70;95.60;;;;;;4943720;28;20081;-90
2022/07/13 08:39:30;;;;;;;8.70;6.63;;;24.80;22.80;;;;;;4963466;28;20122;-91
2022/07/13 08:41:59;;;;;;;7.60;6.05;;;24.90;79.50;;;;;;4948468;28;20043;-92
2022/07/13 08:44:25;;;;;;;8.52;5.88;;;24.90;1.00;;;;;;4946747;28;20428;-92
2022/07/13 08:46:51;;;;;;;7.70;6.20;;;25.20;1.00;;;;;;4947723;28;20047;-93
2022/07/13 08:49:18;;;;;;;5.50;4.50;;;25.10;7.50;;;;;;4946789;28;20043;-93
2022/07/13 08:51:45;;;;;;;7.93;4.68;;;25.30;1.00;;;;;;4947261;28;20320;-93
2022/07/13 08:54:11;;;;;;;9.00;5.05;;;25.30;1.00;;;;;;4971090;28;20132;-93
2022/07/13 08:56:40;;;;;;;7.25;5.38;;;25.30;1.00;;;;;;4973929;28;20046;-92
2022/07/13 08:59:08;;;;;;;7.47;4.57;;;25.40;1.00;;;;;;4940231;28;20042;-93
2022/07/13 09:01:34;;;;;;;9.07;4.45;;;25.40;1.00;;;;;;4947460;28;20051;-93
2022/07/13 09:04:00;;;;;;;6.38;5.47;;;25.50;1.00;;;;;;4954228;28;20050;-91
2022/07/13 09:06:38;;;;;;;6.90;4.82;;;25.30;1.00;;;;;;4956007;28;20047;-92
2022/07/13 09:09:05;;;;;;;7.95;4.55;;;25.50;1.00;;;;;;4948955;28;20074;-93
2022/07/13 09:11:30;;;;;;;6.78;6.07;;;25.50;1.00;;;;;;4946494;28;20065;-92
2022/07/13 09:13:56;;;;;;;11.95;5.20;;;25.50;1.00;;;;;;4947140;28;20051;-92
2022/07/13 09:16:26;;;;;;;22.05;5.85;;;25.50;1.00;;;;;;4947543;28;20054;-92
2022/07/13 09:18:58;;;;;;;7.95;4.20;;;25.70;1.00;;;;;;4958938;28;20038;-90
2022/07/13 09:21:24;;;;;;;5.90;4.40;;;25.70;1.00;;;;;;4958889;28;20790;-90
2022/07/13 09:23:55;;;;;;;15.05;3.55;;;26.00;1.00;;;;;;4941943;28;20681;-92
2022/07/13 09:26:24;;;;;;;7.05;3.53;;;26.00;99.90;;;;;;4977621;28;20264;-93
2022/07/13 09:28:51;;;;;;;10.15;4.10;;;25.80;99.90;;;;;;4946056;28;20458;-93
2022/07/13 09:31:20;;;;;;;7.00;3.20;;;25.80;99.90;;;;;;4947030;28;20125;-93
2022/07/13 09:33:47;;;;;;;7.78;3.75;;;26.00;99.90;;;;;;4945443;28;20482;-91
2022/07/13 09:36:14;;;;;;;8.75;3.47;;;25.90;99.90;;;;;;4947905;28;20486;-92
2022/07/13 09:38:43;;;;;;;6.30;3.10;;;26.00;99.90;;;;;;4940528;28;20046;-91
2022/07/13 09:41:18;;;;;;;3.67;2.80;;;26.20;99.90;;;;;;4971601;28;20414;-92
2022/07/13 09:46:59;;;;;;;9.80;3.75;;;26.40;99.90;;;;;;4960501;28;20080;-92
2022/07/13 09:49:39;;;;;;;7.85;3.45;;;26.10;99.90;;;;;;4949528;28;20042;-93
2022/07/13 09:52:06;;;;;;;4.80;2.90;;;26.20;99.90;;;;;;4945965;28;20054;-92
2022/07/13 09:54:33;;;;;;;5.20;3.47;;;26.40;99.90;;;;;;4961740;28;20394;-90
2022/07/13 09:57:02;;;;;;;5.95;3.75;;;26.20;99.90;;;;;;4946327;28;20498;-93
2022/07/13 09:59:29;;;;;;;10.48;4.40;;;25.90;99.90;;;;;;4940179;28;20043;-91
2022/07/13 10:01:56;;;;;;;10.82;3.63;;;26.20;99.90;;;;;;4946305;28;20062;-93
2022/07/13 10:04:22;;;;;;;7.13;3.45;;;26.30;99.90;;;;;;4945714;28;20049;-93
2022/07/13 10:06:52;;;;;;;9.27;4.32;;;26.60;99.90;;;;;;4971648;28;20333;-92
2022/07/13 10:09:26;;;;;;;5.95;3.50;;;26.60;99.90;;;;;;4973236;28;20074;-90
2022/07/13 10:11:52;;;;;;;5.78;3.60;;;26.60;99.90;;;;;;4948937;28;20094;-90
2022/07/13 10:14:21;;;;;;;31.50;5.18;;;26.60;99.90;;;;;;4943025;28;20046;-91
2022/07/13 10:16:47;;;;;;;7.22;4.07;;;26.60;99.90;;;;;;4955896;28;20043;-92
2022/07/13 10:19:14;;;;;;;6.97;4.15;;;26.60;99.90;;;;;;4954907;28;20058;-94
2022/07/13 10:21:54;;;;;;;5.28;4.07;;;26.70;99.90;;;;;;4944155;28;20039;-90
2022/07/13 10:24:21;;;;;;;5.38;3.72;;;26.60;99.90;;;;;;4942288;28;20056;-91
2022/07/13 10:26:50;;;;;;;7.03;3.83;;;26.90;99.90;;;;;;4942960;28;20530;-89
2022/07/13 10:29:15;;;;;;;4.97;3.13;;;27.00;99.90;;;;;;4937818;28;20419;-91
2022/07/13 10:31:42;;;;;;;6.38;3.17;;;26.90;99.90;;;;;;4944621;28;20285;-92
2022/07/13 10:34:10;;;;;;;4.07;3.15;;;26.70;99.90;;;;;;4960193;28;20053;-89
2022/07/13 10:36:51;;;;;;;4.53;3.47;;;26.80;99.90;;;;;;4945797;28;20557;-90
2022/07/13 10:39:24;;;;;;;4.32;3.40;;;26.70;99.90;;;;;;4947938;28;20039;-90
2022/07/13 10:42:10;;;;;;;5.00;2.20;;;27.00;99.90;;;;;;4958040;28;20038;-90
2022/07/13 10:44:43;;;;;;;4.75;2.70;;;26.90;99.90;;;;;;4956075;28;20038;-90
2022/07/13 10:47:13;;;;;;;4.03;2.65;;;26.80;99.90;;;;;;4938731;28;20047;-90
2022/07/13 10:49:48;;;;;;;4.15;3.20;;;26.90;99.90;;;;;;4952488;28;20352;-91
2022/07/13 10:52:25;;;;;;;5.15;2.90;;;27.40;99.90;;;;;;4943915;28;20038;-91
2022/07/13 10:55:03;;;;;;;5.07;2.85;;;27.40;99.90;;;;;;4943573;28;20066;-91
2022/07/13 10:57:30;;;;;;;5.18;3.00;;;27.40;99.90;;;;;;4954431;28;20348;-91
2022/07/13 11:00:18;;;;;;;5.20;2.70;;;27.30;99.90;;;;;;4951077;28;20503;-92
2022/07/13 11:02:47;;;;;;;9.55;2.90;;;26.90;99.90;;;;;;4968605;28;20148;-91
2022/07/13 11:05:17;;;;;;;2.80;2.25;;;27.20;99.90;;;;;;4941013;28;20105;-91
2022/07/13 11:07:45;;;;;;;5.60;3.03;;;27.00;99.90;;;;;;4952636;28;20074;-89
2022/07/13 11:10:17;;;;;;;3.42;2.30;;;27.00;99.90;;;;;;4940446;28;20499;-90
2022/07/13 11:13:07;;;;;;;11.23;2.30;;;27.10;99.90;;;;;;4943018;28;20043;-90
2022/07/13 11:15:54;;;;;;;5.00;2.55;;;26.80;99.90;;;;;;4956153;28;20128;-90
2022/07/13 11:18:22;;;;;;;2.85;1.98;;;26.60;99.90;;;;;;4948552;28;20112;-89
2022/07/13 11:21:02;;;;;;;7.97;2.30;;;26.50;99.90;;;;;;4951733;28;20196;-89
2022/07/13 11:26:51;;;;;;;11.73;2.60;;;27.10;99.90;;;;;;4955848;28;20053;-90
2022/07/13 11:29:54;;;;;;;2.75;2.00;;;26.80;99.90;;;;;;4960569;28;20046;-90
2022/07/13 11:32:25;;;;;;;4.10;1.88;;;27.00;99.90;;;;;;4957476;28;20122;-89
2022/07/13 11:34:52;;;;;;;2.28;1.85;;;27.20;99.90;;;;;;4942343;28;20126;-89
2022/07/13 11:37:25;;;;;;;3.28;1.95;;;27.00;99.90;;;;;;4944115;28;20039;-89
2022/07/13 11:39:51;;;;;;;5.75;2.28;;;27.00;99.90;;;;;;4959282;28;20074;-90
2022/07/13 11:42:22;;;;;;;3.70;1.83;;;26.70;99.90;;;;;;4944503;28;20066;-90
2022/07/13 11:44:50;;;;;;;2.45;2.10;;;27.00;99.90;;;;;;4944305;28;20039;-90
2022/07/13 11:47:15;;;;;;;3.85;2.30;;;26.50;99.90;;;;;;4954411;28;20065;-89
2022/07/13 11:49:48;;;;;;;3.80;2.10;;;27.00;99.90;;;;;;4943866;28;20458;-89
2022/07/13 11:52:28;;;;;;;4.63;2.30;;;26.30;99.90;;;;;;4974819;28;20478;-90
2022/07/13 11:55:04;;;;;;;5.55;1.90;;;26.90;99.90;;;;;;4944936;28;20051;-90
2022/07/13 11:57:32;;;;;;;4.13;2.10;;;26.50;99.90;;;;;;4946564;28;20462;-89
2022/07/13 12:00:02;;;;;;;2.92;1.98;;;25.90;99.90;;;;;;4960706;28;20053;-90
2022/07/13 12:02:28;;;;;;;4.38;2.10;;;26.20;99.90;;;;;;4961575;28;20054;-90
2022/07/13 12:04:57;;;;;;;3.45;2.50;;;26.00;99.90;;;;;;4968468;28;20043;-91
2022/07/13 12:07:25;;;;;;;2.55;1.77;;;26.30;99.90;;;;;;4942372;28;20051;-89
2022/07/13 12:09:56;;;;;;;3.92;1.95;;;26.30;99.90;;;;;;4947747;28;20061;-90
2022/07/13 12:12:25;;;;;;;2.60;1.92;;;26.40;99.90;;;;;;4959698;28;20046;-90
2022/07/13 12:14:52;;;;;;;3.05;1.90;;;26.30;99.90;;;;;;4946427;28;20069;-88
2022/07/13 12:17:19;;;;;;;3.97;2.20;;;26.00;99.90;;;;;;4952954;28;20039;-89
2022/07/13 12:19:45;;;;;;;15.10;2.75;;;26.40;99.90;;;;;;4946471;28;20468;-89
2022/07/13 12:22:10;;;;;;;3.97;2.10;;;25.30;99.90;;;;;;4949274;28;20038;-89
2022/07/13 12:24:42;;;;;;;3.33;2.50;;;24.90;99.90;;;;;;4947101;28;20078;-89
2022/07/13 12:27:07;;;;;;;6.05;2.42;;;25.20;99.90;;;;;;4946290;28;20054;-88
2022/07/13 12:29:33;;;;;;;6.75;2.30;;;25.60;99.90;;;;;;4946988;28;20042;-90
2022/07/13 12:32:02;;;;;;;3.47;2.17;;;25.50;99.90;;;;;;4956097;28;20136;-89
2022/07/13 12:34:28;;;;;;;4.03;2.10;;;25.40;99.90;;;;;;4958277;28;20486;-91
2022/07/13 12:36:57;;;;;;;4.60;2.58;;;25.70;99.90;;;;;;4942191;28;20047;-89
2022/07/13 12:39:40;;;;;;;5.97;2.47;;;25.70;99.90;;;;;;4949794;28;20046;-90
2022/07/13 12:42:07;;;;;;;6.13;3.20;;;25.80;99.90;;;;;;4959105;28;20170;-89
2022/07/13 12:44:35;;;;;;;6.55;2.55;;;25.50;99.90;;;;;;4940021;28;20437;-89
2022/07/13 12:47:04;;;;;;;4.47;2.50;;;25.70;99.90;;;;;;4945276;28;20396;-89
2022/07/13 12:49:41;;;;;;;4.88;2.75;;;25.60;99.90;;;;;;4955753;28;20408;-89
2022/07/13 12:52:11;;;;;;;3.65;2.28;;;25.60;99.90;;;;;;4932504;28;20444;-89
2022/07/13 12:54:46;;;;;;;3.88;2.30;;;25.80;99.90;;;;;;4937043;28;20085;-91
2022/07/13 12:57:18;;;;;;;3.17;2.70;;;25.30;99.90;;;;;;4941659;28;20031;-89
2022/07/13 13:00:12;;;;;;;4.22;2.70;;;25.30;99.90;;;;;;4944007;28;20051;-89